sensor_id;sensor_type;location;lat;lon;timestamp;P1;durP1;ratioP1;P2;durP2;ratioP2
26574;SDS011;67165;50.256;10.978;2023-07-30T00:01:48;4.60;;;4.13;;
26574;SDS011;67165;50.256;10.978;2023-07-30T00:04:14;6.28;;;4.50;;
26574;SDS011;67165;50.256;10.978;2023-07-30T00:06:39;6.22;;;4.95;;
26574;SDS011;67165;50.256;10.978;2023-07-30T00:09:05;5.50;;;4.53;;
26574;SDS011;67165;50.256;10.978;2023-07-30T00:11:31;7.07;;;3.90;;
26574;SDS011;67165;50.256;10.978;2023-07-30T00:13:57;11.10;;;4.38;;
26574;SDS011;67165;50.256;10.978;2023-07-30T00:16:22;6.28;;;4.43;;
26574;SDS011;67165;50.256;10.978;2023-07-30T00:18:51;5.43;;;3.78;;
26574;SDS011;67165;50.256;10.978;2023-07-30T00:21:16;7.22;;;4.82;;
26574;SDS011;67165;50.256;10.978;2023-07-30T00:23:42;7.07;;;4.50;;
26574;SDS011;67165;50.256;10.978;2023-07-30T00:26:07;9.48;;;4.32;;
26574;SDS011;67165;50.256;10.978;2023-07-30T00:28:33;8.90;;;4.13;;
26574;SDS011;67165;50.256;10.978;2023-07-30T00:30:59;6.88;;;4.00;;
26574;SDS011;67165;50.256;10.978;2023-07-30T00:33:24;7.97;;;4.43;;
26574;SDS011;67165;50.256;10.978;2023-07-30T00:35:51;8.75;;;4.65;;
26574;SDS011;67165;50.256;10.978;2023-07-30T00:38:17;9.50;;;4.63;;
26574;SDS011;67165;50.256;10.978;2023-07-30T00:40:43;5.82;;;4.57;;
26574;SDS011;67165;50.256;10.978;2023-07-30T00:43:09;9.73;;;4.55;;
26574;SDS011;67165;50.256;10.978;2023-07-30T00:45:35;7.88;;;4.28;;
26574;SDS011;67165;50.256;10.978;2023-07-30T00:48:02;9.77;;;4.45;;
26574;SDS011;67165;50.256;10.978;2023-07-30T00:50:28;6.22;;;4.10;;
26574;SDS011;67165;50.256;10.978;2023-07-30T00:52:54;6.05;;;4.20;;
26574;SDS011;67165;50.256;10.978;2023-07-30T00:55:19;6.00;;;3.92;;
26574;SDS011;67165;50.256;10.978;2023-07-30T00:57:45;7.68;;;4.65;;
26574;SDS011;67165;50.256;10.978;2023-07-30T01:00:11;6.55;;;4.13;;
26574;SDS011;67165;50.256;10.978;2023-07-30T01:02:37;10.30;;;4.63;;
26574;SDS011;67165;50.256;10.978;2023-07-30T01:05:03;7.32;;;4.32;;
26574;SDS011;67165;50.256;10.978;2023-07-30T01:07:32;6.95;;;4.75;;
26574;SDS011;67165;50.256;10.978;2023-07-30T01:09:58;9.35;;;4.10;;
26574;SDS011;67165;50.256;10.978;2023-07-30T01:12:25;8.75;;;4.82;;
26574;SDS011;67165;50.256;10.978;2023-07-30T01:14:54;7.40;;;4.38;;
26574;SDS011;67165;50.256;10.978;2023-07-30T01:17:21;4.78;;;4.10;;
26574;SDS011;67165;50.256;10.978;2023-07-30T01:19:47;6.28;;;4.53;;
26574;SDS011;67165;50.256;10.978;2023-07-30T01:22:14;10.55;;;4.70;;
26574;SDS011;67165;50.256;10.978;2023-07-30T01:24:41;5.10;;;4.03;;
26574;SDS011;67165;50.256;10.978;2023-07-30T01:27:07;5.88;;;4.60;;
26574;SDS011;67165;50.256;10.978;2023-07-30T01:29:49;7.35;;;4.50;;
26574;SDS011;67165;50.256;10.978;2023-07-30T01:32:19;5.40;;;4.30;;
26574;SDS011;67165;50.256;10.978;2023-07-30T01:34:49;6.93;;;5.28;;
26574;SDS011;67165;50.256;10.978;2023-07-30T01:37:22;6.97;;;4.68;;
26574;SDS011;67165;50.256;10.978;2023-07-30T01:39:48;8.38;;;4.75;;
26574;SDS011;67165;50.256;10.978;2023-07-30T01:42:15;5.55;;;4.72;;
26574;SDS011;67165;50.256;10.978;2023-07-30T01:44:41;7.30;;;4.40;;
26574;SDS011;67165;50.256;10.978;2023-07-30T01:47:07;8.60;;;5.45;;
26574;SDS011;67165;50.256;10.978;2023-07-30T01:49:32;6.78;;;5.10;;
26574;SDS011;67165;50.256;10.978;2023-07-30T01:51:58;7.40;;;5.70;;
26574;SDS011;67165;50.256;10.978;2023-07-30T01:54:24;4.95;;;4.45;;
26574;SDS011;67165;50.256;10.978;2023-07-30T01:56:50;7.88;;;4.70;;
26574;SDS011;67165;50.256;10.978;2023-07-30T01:59:15;10.27;;;5.38;;
26574;SDS011;67165;50.256;10.978;2023-07-30T02:01:41;6.38;;;5.20;;
26574;SDS011;67165;50.256;10.978;2023-07-30T02:04:08;6.85;;;5.00;;
26574;SDS011;67165;50.256;10.978;2023-07-30T02:06:34;7.65;;;4.88;;
26574;SDS011;67165;50.256;10.978;2023-07-30T02:08:59;5.88;;;5.25;;
26574;SDS011;67165;50.256;10.978;2023-07-30T02:11:25;7.13;;;5.10;;
26574;SDS011;67165;50.256;10.978;2023-07-30T02:13:51;10.77;;;5.07;;
26574;SDS011;67165;50.256;10.978;2023-07-30T02:16:17;5.75;;;4.95;;
26574;SDS011;67165;50.256;10.978;2023-07-30T02:18:42;8.90;;;5.15;;
26574;SDS011;67165;50.256;10.978;2023-07-30T02:21:08;9.05;;;5.28;;
26574;SDS011;67165;50.256;10.978;2023-07-30T02:23:34;6.57;;;4.95;;
26574;SDS011;67165;50.256;10.978;2023-07-30T02:25:59;9.20;;;5.25;;
26574;SDS011;67165;50.256;10.978;2023-07-30T02:28:25;9.50;;;5.47;;
26574;SDS011;67165;50.256;10.978;2023-07-30T02:30:51;7.60;;;5.15;;
26574;SDS011;67165;50.256;10.978;2023-07-30T02:33:17;5.35;;;4.20;;
26574;SDS011;67165;50.256;10.978;2023-07-30T02:35:43;7.30;;;4.60;;
26574;SDS011;67165;50.256;10.978;2023-07-30T02:38:08;6.32;;;5.18;;
26574;SDS011;67165;50.256;10.978;2023-07-30T02:40:34;8.13;;;4.72;;
26574;SDS011;67165;50.256;10.978;2023-07-30T02:43:00;6.45;;;5.07;;
26574;SDS011;67165;50.256;10.978;2023-07-30T02:45:26;7.78;;;5.35;;
26574;SDS011;67165;50.256;10.978;2023-07-30T02:47:51;5.45;;;4.93;;
26574;SDS011;67165;50.256;10.978;2023-07-30T02:50:17;6.30;;;4.80;;
26574;SDS011;67165;50.256;10.978;2023-07-30T02:52:43;9.48;;;5.20;;
26574;SDS011;67165;50.256;10.978;2023-07-30T02:55:09;7.85;;;5.30;;
26574;SDS011;67165;50.256;10.978;2023-07-30T02:57:34;6.05;;;4.57;;
26574;SDS011;67165;50.256;10.978;2023-07-30T03:00:00;9.07;;;4.80;;
26574;SDS011;67165;50.256;10.978;2023-07-30T03:02:26;6.80;;;4.97;;
26574;SDS011;67165;50.256;10.978;2023-07-30T03:04:52;6.63;;;4.57;;
26574;SDS011;67165;50.256;10.978;2023-07-30T03:07:17;8.80;;;4.85;;
26574;SDS011;67165;50.256;10.978;2023-07-30T03:09:44;9.15;;;5.30;;
26574;SDS011;67165;50.256;10.978;2023-07-30T03:12:10;9.35;;;5.18;;
26574;SDS011;67165;50.256;10.978;2023-07-30T03:14:36;8.50;;;5.25;;
26574;SDS011;67165;50.256;10.978;2023-07-30T03:17:01;7.55;;;5.00;;
26574;SDS011;67165;50.256;10.978;2023-07-30T03:19:27;6.18;;;4.53;;
26574;SDS011;67165;50.256;10.978;2023-07-30T03:21:53;9.30;;;5.60;;
26574;SDS011;67165;50.256;10.978;2023-07-30T03:24:18;5.75;;;4.90;;
26574;SDS011;67165;50.256;10.978;2023-07-30T03:26:44;8.50;;;5.75;;
26574;SDS011;67165;50.256;10.978;2023-07-30T03:29:10;10.18;;;5.47;;
26574;SDS011;67165;50.256;10.978;2023-07-30T03:31:35;7.70;;;5.53;;
26574;SDS011;67165;50.256;10.978;2023-07-30T03:34:01;8.88;;;5.78;;
26574;SDS011;67165;50.256;10.978;2023-07-30T03:36:26;6.18;;;5.13;;
26574;SDS011;67165;50.256;10.978;2023-07-30T03:38:52;8.02;;;5.45;;
26574;SDS011;67165;50.256;10.978;2023-07-30T03:41:18;6.80;;;5.50;;
26574;SDS011;67165;50.256;10.978;2023-07-30T03:43:46;7.53;;;6.13;;
26574;SDS011;67165;50.256;10.978;2023-07-30T03:46:12;7.78;;;6.05;;
26574;SDS011;67165;50.256;10.978;2023-07-30T03:48:38;14.27;;;6.57;;
26574;SDS011;67165;50.256;10.978;2023-07-30T03:51:03;6.93;;;5.35;;
26574;SDS011;67165;50.256;10.978;2023-07-30T03:53:29;7.30;;;5.40;;
26574;SDS011;67165;50.256;10.978;2023-07-30T03:55:55;5.28;;;4.60;;
26574;SDS011;67165;50.256;10.978;2023-07-30T03:58:20;8.27;;;5.72;;
26574;SDS011;67165;50.256;10.978;2023-07-30T04:00:46;7.30;;;5.65;;
26574;SDS011;67165;50.256;10.978;2023-07-30T04:03:12;7.70;;;5.70;;
26574;SDS011;67165;50.256;10.978;2023-07-30T04:05:37;7.57;;;6.00;;
26574;SDS011;67165;50.256;10.978;2023-07-30T04:08:03;8.93;;;7.28;;
26574;SDS011;67165;50.256;10.978;2023-07-30T04:10:28;9.82;;;5.45;;
26574;SDS011;67165;50.256;10.978;2023-07-30T04:12:54;6.13;;;5.43;;
26574;SDS011;67165;50.256;10.978;2023-07-30T04:15:19;6.85;;;6.15;;
26574;SDS011;67165;50.256;10.978;2023-07-30T04:17:48;6.85;;;6.07;;
26574;SDS011;67165;50.256;10.978;2023-07-30T04:20:13;6.40;;;5.72;;
26574;SDS011;67165;50.256;10.978;2023-07-30T04:22:39;8.00;;;5.70;;
26574;SDS011;67165;50.256;10.978;2023-07-30T04:25:06;6.15;;;5.55;;
26574;SDS011;67165;50.256;10.978;2023-07-30T04:27:33;6.25;;;5.65;;
26574;SDS011;67165;50.256;10.978;2023-07-30T04:29:58;8.18;;;6.13;;
26574;SDS011;67165;50.256;10.978;2023-07-30T04:32:24;10.55;;;5.15;;
26574;SDS011;67165;50.256;10.978;2023-07-30T04:34:49;5.50;;;5.00;;
26574;SDS011;67165;50.256;10.978;2023-07-30T04:37:15;6.28;;;5.38;;
26574;SDS011;67165;50.256;10.978;2023-07-30T04:39:41;8.60;;;5.47;;
26574;SDS011;67165;50.256;10.978;2023-07-30T04:42:06;6.45;;;5.60;;
26574;SDS011;67165;50.256;10.978;2023-07-30T04:44:32;9.45;;;6.10;;
26574;SDS011;67165;50.256;10.978;2023-07-30T04:46:58;7.25;;;5.97;;
26574;SDS011;67165;50.256;10.978;2023-07-30T04:49:23;6.90;;;6.15;;
26574;SDS011;67165;50.256;10.978;2023-07-30T04:51:49;6.70;;;5.57;;
26574;SDS011;67165;50.256;10.978;2023-07-30T04:54:14;5.55;;;4.97;;
26574;SDS011;67165;50.256;10.978;2023-07-30T04:56:40;6.38;;;5.30;;
26574;SDS011;67165;50.256;10.978;2023-07-30T04:59:06;6.07;;;5.20;;
26574;SDS011;67165;50.256;10.978;2023-07-30T05:01:32;8.98;;;6.07;;
26574;SDS011;67165;50.256;10.978;2023-07-30T05:03:58;8.45;;;6.18;;
26574;SDS011;67165;50.256;10.978;2023-07-30T05:06:23;7.55;;;6.30;;
26574;SDS011;67165;50.256;10.978;2023-07-30T05:08:49;6.57;;;5.45;;
26574;SDS011;67165;50.256;10.978;2023-07-30T05:11:15;6.57;;;5.85;;
26574;SDS011;67165;50.256;10.978;2023-07-30T05:13:40;7.55;;;5.65;;
26574;SDS011;67165;50.256;10.978;2023-07-30T05:16:06;7.25;;;5.45;;
26574;SDS011;67165;50.256;10.978;2023-07-30T05:18:31;6.18;;;5.00;;
26574;SDS011;67165;50.256;10.978;2023-07-30T05:20:57;6.70;;;5.32;;
26574;SDS011;67165;50.256;10.978;2023-07-30T05:23:23;8.32;;;5.90;;
26574;SDS011;67165;50.256;10.978;2023-07-30T05:25:49;6.75;;;5.40;;
26574;SDS011;67165;50.256;10.978;2023-07-30T05:28:14;7.95;;;5.70;;
26574;SDS011;67165;50.256;10.978;2023-07-30T05:30:40;5.93;;;5.25;;
26574;SDS011;67165;50.256;10.978;2023-07-30T05:33:06;6.18;;;4.97;;
26574;SDS011;67165;50.256;10.978;2023-07-30T05:35:31;7.45;;;5.28;;
26574;SDS011;67165;50.256;10.978;2023-07-30T05:37:57;7.45;;;5.10;;
26574;SDS011;67165;50.256;10.978;2023-07-30T05:40:23;10.63;;;6.03;;
26574;SDS011;67165;50.256;10.978;2023-07-30T05:42:48;5.72;;;5.18;;
26574;SDS011;67165;50.256;10.978;2023-07-30T05:45:14;7.30;;;4.95;;
26574;SDS011;67165;50.256;10.978;2023-07-30T05:47:40;5.13;;;4.60;;
26574;SDS011;67165;50.256;10.978;2023-07-30T05:50:08;5.43;;;4.32;;
26574;SDS011;67165;50.256;10.978;2023-07-30T05:52:34;6.28;;;4.13;;
26574;SDS011;67165;50.256;10.978;2023-07-30T05:55:00;4.65;;;4.20;;
26574;SDS011;67165;50.256;10.978;2023-07-30T05:57:25;5.70;;;5.00;;
26574;SDS011;67165;50.256;10.978;2023-07-30T05:59:51;7.60;;;5.05;;
26574;SDS011;67165;50.256;10.978;2023-07-30T06:02:17;7.07;;;4.88;;
26574;SDS011;67165;50.256;10.978;2023-07-30T06:04:43;5.05;;;4.55;;
26574;SDS011;67165;50.256;10.978;2023-07-30T06:07:09;5.28;;;4.78;;
26574;SDS011;67165;50.256;10.978;2023-07-30T06:09:35;5.00;;;4.50;;
26574;SDS011;67165;50.256;10.978;2023-07-30T06:12:02;6.55;;;4.25;;
26574;SDS011;67165;50.256;10.978;2023-07-30T06:14:28;5.03;;;4.35;;
26574;SDS011;67165;50.256;10.978;2023-07-30T06:16:54;6.88;;;4.70;;
26574;SDS011;67165;50.256;10.978;2023-07-30T06:19:20;10.40;;;5.00;;
26574;SDS011;67165;50.256;10.978;2023-07-30T06:21:45;6.53;;;4.40;;
26574;SDS011;67165;50.256;10.978;2023-07-30T06:24:11;6.03;;;4.50;;
26574;SDS011;67165;50.256;10.978;2023-07-30T06:26:37;6.00;;;4.35;;
26574;SDS011;67165;50.256;10.978;2023-07-30T06:29:03;4.88;;;4.38;;
26574;SDS011;67165;50.256;10.978;2023-07-30T06:31:28;7.03;;;4.18;;
26574;SDS011;67165;50.256;10.978;2023-07-30T06:33:54;7.07;;;3.70;;
26574;SDS011;67165;50.256;10.978;2023-07-30T06:36:20;5.47;;;3.70;;
26574;SDS011;67165;50.256;10.978;2023-07-30T06:38:46;6.63;;;3.88;;
26574;SDS011;67165;50.256;10.978;2023-07-30T06:41:11;4.68;;;3.60;;
26574;SDS011;67165;50.256;10.978;2023-07-30T06:43:37;8.77;;;3.80;;
26574;SDS011;67165;50.256;10.978;2023-07-30T06:46:03;4.07;;;3.55;;
26574;SDS011;67165;50.256;10.978;2023-07-30T06:48:29;3.70;;;3.35;;
26574;SDS011;67165;50.256;10.978;2023-07-30T06:50:55;6.90;;;3.42;;
26574;SDS011;67165;50.256;10.978;2023-07-30T06:53:20;5.20;;;3.63;;
26574;SDS011;67165;50.256;10.978;2023-07-30T06:55:46;3.60;;;3.30;;
26574;SDS011;67165;50.256;10.978;2023-07-30T06:58:11;4.45;;;3.60;;
26574;SDS011;67165;50.256;10.978;2023-07-30T07:00:37;4.50;;;3.08;;
26574;SDS011;67165;50.256;10.978;2023-07-30T07:03:03;5.53;;;2.90;;
26574;SDS011;67165;50.256;10.978;2023-07-30T07:05:29;6.00;;;3.00;;
26574;SDS011;67165;50.256;10.978;2023-07-30T07:07:54;3.45;;;2.70;;
26574;SDS011;67165;50.256;10.978;2023-07-30T07:10:20;4.85;;;2.65;;
26574;SDS011;67165;50.256;10.978;2023-07-30T07:12:46;4.22;;;3.05;;
26574;SDS011;67165;50.256;10.978;2023-07-30T07:15:12;5.35;;;2.75;;
26574;SDS011;67165;50.256;10.978;2023-07-30T07:17:38;4.82;;;2.80;;
26574;SDS011;67165;50.256;10.978;2023-07-30T07:20:04;6.88;;;3.38;;
26574;SDS011;67165;50.256;10.978;2023-07-30T07:22:32;3.47;;;2.85;;
26574;SDS011;67165;50.256;10.978;2023-07-30T07:24:58;3.28;;;2.88;;
26574;SDS011;67165;50.256;10.978;2023-07-30T07:27:23;3.53;;;2.67;;
26574;SDS011;67165;50.256;10.978;2023-07-30T07:29:50;2.85;;;2.53;;
26574;SDS011;67165;50.256;10.978;2023-07-30T07:32:16;3.10;;;2.80;;
26574;SDS011;67165;50.256;10.978;2023-07-30T07:34:45;4.43;;;2.60;;
26574;SDS011;67165;50.256;10.978;2023-07-30T07:37:14;4.00;;;2.40;;
26574;SDS011;67165;50.256;10.978;2023-07-30T07:40:01;2.43;;;2.19;;
26574;SDS011;67165;50.256;10.978;2023-07-30T07:42:28;4.07;;;2.22;;
26574;SDS011;67165;50.256;10.978;2023-07-30T07:44:55;2.50;;;2.22;;
26574;SDS011;67165;50.256;10.978;2023-07-30T07:47:21;4.70;;;2.15;;
26574;SDS011;67165;50.256;10.978;2023-07-30T07:49:47;2.20;;;1.90;;
26574;SDS011;67165;50.256;10.978;2023-07-30T07:52:13;4.72;;;2.10;;
26574;SDS011;67165;50.256;10.978;2023-07-30T07:54:40;5.32;;;2.03;;
26574;SDS011;67165;50.256;10.978;2023-07-30T07:57:06;3.40;;;2.00;;
26574;SDS011;67165;50.256;10.978;2023-07-30T07:59:32;3.08;;;2.25;;
26574;SDS011;67165;50.256;10.978;2023-07-30T08:01:58;2.85;;;1.85;;
26574;SDS011;67165;50.256;10.978;2023-07-30T08:04:24;4.30;;;1.88;;
26574;SDS011;67165;50.256;10.978;2023-07-30T08:06:49;1.73;;;1.63;;
26574;SDS011;67165;50.256;10.978;2023-07-30T08:09:15;1.70;;;1.60;;
26574;SDS011;67165;50.256;10.978;2023-07-30T08:11:41;4.28;;;1.88;;
26574;SDS011;67165;50.256;10.978;2023-07-30T08:14:06;2.35;;;1.80;;
26574;SDS011;67165;50.256;10.978;2023-07-30T08:16:32;1.85;;;1.65;;
26574;SDS011;67165;50.256;10.978;2023-07-30T08:18:58;2.00;;;1.65;;
26574;SDS011;67165;50.256;10.978;2023-07-30T08:21:23;2.33;;;1.60;;
26574;SDS011;67165;50.256;10.978;2023-07-30T08:23:49;1.80;;;1.70;;
26574;SDS011;67165;50.256;10.978;2023-07-30T08:26:14;2.90;;;1.50;;
26574;SDS011;67165;50.256;10.978;2023-07-30T08:28:40;1.70;;;1.60;;
26574;SDS011;67165;50.256;10.978;2023-07-30T08:31:06;1.75;;;1.60;;
26574;SDS011;67165;50.256;10.978;2023-07-30T08:33:34;2.10;;;1.83;;
26574;SDS011;67165;50.256;10.978;2023-07-30T08:35:59;2.20;;;1.67;;
26574;SDS011;67165;50.256;10.978;2023-07-30T08:38:25;2.15;;;1.67;;
26574;SDS011;67165;50.256;10.978;2023-07-30T08:40:51;4.35;;;1.90;;
26574;SDS011;67165;50.256;10.978;2023-07-30T08:43:19;3.63;;;2.00;;
26574;SDS011;67165;50.256;10.978;2023-07-30T08:45:45;2.30;;;1.73;;
26574;SDS011;67165;50.256;10.978;2023-07-30T08:48:11;7.57;;;2.10;;
26574;SDS011;67165;50.256;10.978;2023-07-30T08:50:37;2.08;;;1.80;;
26574;SDS011;67165;50.256;10.978;2023-07-30T08:53:03;2.92;;;1.80;;
26574;SDS011;67165;50.256;10.978;2023-07-30T08:55:32;4.32;;;1.90;;
26574;SDS011;67165;50.256;10.978;2023-07-30T08:57:59;2.95;;;1.83;;
26574;SDS011;67165;50.256;10.978;2023-07-30T09:00:28;2.10;;;1.70;;
26574;SDS011;67165;50.256;10.978;2023-07-30T09:02:59;2.20;;;1.88;;
26574;SDS011;67165;50.256;10.978;2023-07-30T09:05:27;3.45;;;1.75;;
26574;SDS011;67165;50.256;10.978;2023-07-30T09:07:54;2.80;;;1.60;;
26574;SDS011;67165;50.256;10.978;2023-07-30T09:10:20;2.00;;;1.70;;
26574;SDS011;67165;50.256;10.978;2023-07-30T09:12:51;3.45;;;1.80;;
26574;SDS011;67165;50.256;10.978;2023-07-30T09:15:19;2.80;;;1.70;;
26574;SDS011;67165;50.256;10.978;2023-07-30T09:17:58;2.55;;;1.80;;
26574;SDS011;67165;50.256;10.978;2023-07-30T09:20:24;1.77;;;1.58;;
26574;SDS011;67165;50.256;10.978;2023-07-30T09:22:50;1.90;;;1.55;;
26574;SDS011;67165;50.256;10.978;2023-07-30T09:25:18;2.13;;;1.67;;
26574;SDS011;67165;50.256;10.978;2023-07-30T09:27:54;10.48;;;2.00;;
26574;SDS011;67165;50.256;10.978;2023-07-30T09:30:25;2.47;;;1.50;;
26574;SDS011;67165;50.256;10.978;2023-07-30T09:32:52;1.77;;;1.63;;
26574;SDS011;67165;50.256;10.978;2023-07-30T09:35:22;2.35;;;1.80;;
26574;SDS011;67165;50.256;10.978;2023-07-30T09:37:50;4.07;;;1.73;;
26574;SDS011;67165;50.256;10.978;2023-07-30T09:40:30;2.80;;;1.50;;
26574;SDS011;67165;50.256;10.978;2023-07-30T09:42:59;2.33;;;1.85;;
26574;SDS011;67165;50.256;10.978;2023-07-30T09:45:26;5.18;;;1.80;;
26574;SDS011;67165;50.256;10.978;2023-07-30T09:47:53;2.65;;;1.58;;
26574;SDS011;67165;50.256;10.978;2023-07-30T09:50:21;1.73;;;1.63;;
26574;SDS011;67165;50.256;10.978;2023-07-30T09:52:47;2.95;;;1.90;;
26574;SDS011;67165;50.256;10.978;2023-07-30T09:55:14;3.75;;;2.40;;
26574;SDS011;67165;50.256;10.978;2023-07-30T09:57:41;2.08;;;1.77;;
26574;SDS011;67165;50.256;10.978;2023-07-30T10:00:06;3.03;;;1.42;;
26574;SDS011;67165;50.256;10.978;2023-07-30T10:02:37;2.83;;;1.58;;
26574;SDS011;67165;50.256;10.978;2023-07-30T10:05:10;2.35;;;1.60;;
26574;SDS011;67165;50.256;10.978;2023-07-30T10:10:24;2.15;;;1.40;;
26574;SDS011;67165;50.256;10.978;2023-07-30T10:12:51;2.45;;;1.60;;
26574;SDS011;67165;50.256;10.978;2023-07-30T10:15:19;1.50;;;1.40;;
26574;SDS011;67165;50.256;10.978;2023-07-30T10:17:49;1.73;;;1.40;;
26574;SDS011;67165;50.256;10.978;2023-07-30T10:20:24;1.27;;;1.17;;
26574;SDS011;67165;50.256;10.978;2023-07-30T10:22:55;2.55;;;1.45;;
26574;SDS011;67165;50.256;10.978;2023-07-30T10:25:22;2.75;;;1.50;;
26574;SDS011;67165;50.256;10.978;2023-07-30T10:30:21;1.60;;;1.30;;
26574;SDS011;67165;50.256;10.978;2023-07-30T10:35:43;2.70;;;1.25;;
26574;SDS011;67165;50.256;10.978;2023-07-30T10:41:05;1.85;;;1.45;;
26574;SDS011;67165;50.256;10.978;2023-07-30T10:43:40;4.68;;;1.40;;
26574;SDS011;67165;50.256;10.978;2023-07-30T10:46:12;1.42;;;1.30;;
26574;SDS011;67165;50.256;10.978;2023-07-30T10:48:39;4.07;;;1.40;;
26574;SDS011;67165;50.256;10.978;2023-07-30T10:51:08;4.45;;;1.30;;
26574;SDS011;67165;50.256;10.978;2023-07-30T10:53:34;1.80;;;1.20;;
26574;SDS011;67165;50.256;10.978;2023-07-30T10:56:04;1.15;;;1.13;;
26574;SDS011;67165;50.256;10.978;2023-07-30T10:58:32;1.40;;;1.30;;
26574;SDS011;67165;50.256;10.978;2023-07-30T11:01:01;2.13;;;1.38;;
26574;SDS011;67165;50.256;10.978;2023-07-30T11:03:28;2.65;;;1.40;;
26574;SDS011;67165;50.256;10.978;2023-07-30T11:05:55;1.85;;;1.40;;
26574;SDS011;67165;50.256;10.978;2023-07-30T11:08:22;3.30;;;1.40;;
26574;SDS011;67165;50.256;10.978;2023-07-30T11:10:58;4.05;;;1.30;;
26574;SDS011;67165;50.256;10.978;2023-07-30T11:13:24;9.23;;;1.33;;
26574;SDS011;67165;50.256;10.978;2023-07-30T11:15:50;1.50;;;1.40;;
26574;SDS011;67165;50.256;10.978;2023-07-30T11:18:15;2.80;;;1.67;;
26574;SDS011;67165;50.256;10.978;2023-07-30T11:20:41;1.70;;;1.60;;
26574;SDS011;67165;50.256;10.978;2023-07-30T11:23:20;3.20;;;1.80;;
26574;SDS011;67165;50.256;10.978;2023-07-30T11:25:50;3.72;;;1.98;;
26574;SDS011;67165;50.256;10.978;2023-07-30T11:28:28;1.88;;;1.60;;
26574;SDS011;67165;50.256;10.978;2023-07-30T11:30:55;1.90;;;1.60;;
26574;SDS011;67165;50.256;10.978;2023-07-30T11:33:26;4.32;;;3.30;;
26574;SDS011;67165;50.256;10.978;2023-07-30T11:35:52;3.55;;;1.98;;
26574;SDS011;67165;50.256;10.978;2023-07-30T11:38:23;4.60;;;2.03;;
26574;SDS011;67165;50.256;10.978;2023-07-30T11:40:50;3.33;;;1.55;;
26574;SDS011;67165;50.256;10.978;2023-07-30T11:43:17;6.35;;;1.98;;
26574;SDS011;67165;50.256;10.978;2023-07-30T11:45:42;3.00;;;1.77;;
26574;SDS011;67165;50.256;10.978;2023-07-30T11:48:09;4.65;;;2.15;;
26574;SDS011;67165;50.256;10.978;2023-07-30T11:50:51;2.95;;;1.70;;
26574;SDS011;67165;50.256;10.978;2023-07-30T11:53:17;3.80;;;1.90;;
26574;SDS011;67165;50.256;10.978;2023-07-30T11:55:44;3.47;;;1.85;;
26574;SDS011;67165;50.256;10.978;2023-07-30T11:58:10;2.70;;;1.80;;
26574;SDS011;67165;50.256;10.978;2023-07-30T12:00:37;2.58;;;1.80;;
26574;SDS011;67165;50.256;10.978;2023-07-30T12:03:04;7.28;;;5.03;;
26574;SDS011;67165;50.256;10.978;2023-07-30T12:05:35;4.40;;;3.85;;
26574;SDS011;67165;50.256;10.978;2023-07-30T12:08:02;31.33;;;17.88;;
26574;SDS011;67165;50.256;10.978;2023-07-30T12:10:47;12.65;;;6.47;;
26574;SDS011;67165;50.256;10.978;2023-07-30T12:13:18;7.32;;;5.18;;
26574;SDS011;67165;50.256;10.978;2023-07-30T12:15:54;5.20;;;2.83;;
26574;SDS011;67165;50.256;10.978;2023-07-30T12:18:23;5.47;;;4.45;;
26574;SDS011;67165;50.256;10.978;2023-07-30T12:20:50;5.00;;;4.00;;
26574;SDS011;67165;50.256;10.978;2023-07-30T12:23:17;5.03;;;3.25;;
26574;SDS011;67165;50.256;10.978;2023-07-30T12:25:44;2.28;;;1.83;;
26574;SDS011;67165;50.256;10.978;2023-07-30T12:28:10;2.22;;;1.88;;
26574;SDS011;67165;50.256;10.978;2023-07-30T12:30:36;1.77;;;1.67;;
26574;SDS011;67165;50.256;10.978;2023-07-30T12:33:02;2.08;;;1.80;;
26574;SDS011;67165;50.256;10.978;2023-07-30T12:35:29;2.55;;;2.17;;
26574;SDS011;67165;50.256;10.978;2023-07-30T12:37:55;4.65;;;1.73;;
26574;SDS011;67165;50.256;10.978;2023-07-30T12:40:21;2.50;;;1.75;;
26574;SDS011;67165;50.256;10.978;2023-07-30T12:42:49;4.28;;;1.95;;
26574;SDS011;67165;50.256;10.978;2023-07-30T12:45:15;4.82;;;1.65;;
26574;SDS011;67165;50.256;10.978;2023-07-30T12:47:41;2.88;;;1.70;;
26574;SDS011;67165;50.256;10.978;2023-07-30T12:50:07;1.83;;;1.70;;
26574;SDS011;67165;50.256;10.978;2023-07-30T12:52:33;3.08;;;1.90;;
26574;SDS011;67165;50.256;10.978;2023-07-30T12:55:00;2.15;;;1.60;;
26574;SDS011;67165;50.256;10.978;2023-07-30T12:57:26;2.33;;;1.67;;
26574;SDS011;67165;50.256;10.978;2023-07-30T12:59:52;2.55;;;1.73;;
26574;SDS011;67165;50.256;10.978;2023-07-30T13:02:18;1.55;;;1.30;;
26574;SDS011;67165;50.256;10.978;2023-07-30T13:04:43;3.95;;;1.60;;
26574;SDS011;67165;50.256;10.978;2023-07-30T13:07:09;3.17;;;1.55;;
26574;SDS011;67165;50.256;10.978;2023-07-30T13:09:35;2.20;;;1.60;;
26574;SDS011;67165;50.256;10.978;2023-07-30T13:12:00;4.63;;;1.73;;
26574;SDS011;67165;50.256;10.978;2023-07-30T13:14:26;3.15;;;1.60;;
26574;SDS011;67165;50.256;10.978;2023-07-30T13:16:51;2.17;;;1.50;;
26574;SDS011;67165;50.256;10.978;2023-07-30T13:19:17;3.45;;;1.60;;
26574;SDS011;67165;50.256;10.978;2023-07-30T13:21:43;2.63;;;1.60;;
26574;SDS011;67165;50.256;10.978;2023-07-30T13:24:08;4.10;;;1.70;;
26574;SDS011;67165;50.256;10.978;2023-07-30T13:26:35;4.07;;;1.70;;
26574;SDS011;67165;50.256;10.978;2023-07-30T13:29:01;2.47;;;1.63;;
26574;SDS011;67165;50.256;10.978;2023-07-30T13:31:26;4.93;;;1.60;;
26574;SDS011;67165;50.256;10.978;2023-07-30T13:33:52;3.05;;;1.42;;
26574;SDS011;67165;50.256;10.978;2023-07-30T13:36:18;1.92;;;1.25;;
26574;SDS011;67165;50.256;10.978;2023-07-30T13:38:44;3.42;;;1.60;;
26574;SDS011;67165;50.256;10.978;2023-07-30T13:41:09;3.20;;;1.60;;
26574;SDS011;67165;50.256;10.978;2023-07-30T13:43:35;2.08;;;1.55;;
26574;SDS011;67165;50.256;10.978;2023-07-30T13:46:01;4.20;;;1.60;;
26574;SDS011;67165;50.256;10.978;2023-07-30T13:48:28;3.55;;;1.65;;
26574;SDS011;67165;50.256;10.978;2023-07-30T13:50:54;2.95;;;1.50;;
26574;SDS011;67165;50.256;10.978;2023-07-30T13:53:19;1.98;;;1.48;;
26574;SDS011;67165;50.256;10.978;2023-07-30T13:55:45;2.88;;;1.65;;
26574;SDS011;67165;50.256;10.978;2023-07-30T13:58:11;4.05;;;1.50;;
26574;SDS011;67165;50.256;10.978;2023-07-30T14:00:36;5.57;;;1.33;;
26574;SDS011;67165;50.256;10.978;2023-07-30T14:03:05;3.75;;;1.50;;
26574;SDS011;67165;50.256;10.978;2023-07-30T14:05:30;1.58;;;1.15;;
26574;SDS011;67165;50.256;10.978;2023-07-30T14:07:56;3.97;;;1.30;;
26574;SDS011;67165;50.256;10.978;2023-07-30T14:10:22;4.28;;;1.40;;
26574;SDS011;67165;50.256;10.978;2023-07-30T14:12:48;4.05;;;1.27;;
26574;SDS011;67165;50.256;10.978;2023-07-30T14:15:14;6.85;;;1.63;;
26574;SDS011;67165;50.256;10.978;2023-07-30T14:17:42;4.30;;;1.65;;
26574;SDS011;67165;50.256;10.978;2023-07-30T14:20:08;3.75;;;1.55;;
26574;SDS011;67165;50.256;10.978;2023-07-30T14:22:34;2.75;;;1.40;;
26574;SDS011;67165;50.256;10.978;2023-07-30T14:25:01;5.57;;;1.40;;
26574;SDS011;67165;50.256;10.978;2023-07-30T14:27:27;2.47;;;1.30;;
26574;SDS011;67165;50.256;10.978;2023-07-30T14:29:52;1.92;;;1.35;;
26574;SDS011;67165;50.256;10.978;2023-07-30T14:32:22;2.88;;;1.42;;
26574;SDS011;67165;50.256;10.978;2023-07-30T14:34:48;2.53;;;1.20;;
26574;SDS011;67165;50.256;10.978;2023-07-30T14:37:14;2.85;;;1.48;;
26574;SDS011;67165;50.256;10.978;2023-07-30T14:39:40;3.40;;;1.40;;
26574;SDS011;67165;50.256;10.978;2023-07-30T14:42:06;2.90;;;1.30;;